Worms, Nebraska
Current Conditions -  °F | °C
As of 9:53 PM on Thursday 18 Dec 2014 (Local Time) from KGRI Reporting Station
Overcast Overcast  
Wind Chill: 21°   Ceiling: 1200
Heat Index: 29°   Visibility: 10mi
Dew Point: 24°   Wind: 8mph
Humidity: 82%   Direction: 220°SW
Pressure: 30.19"   Gusts: NA
Location:  41.091°N, 98.3628°W
Report Text: KGRI 190353Z AUTO 22007KT 10SM OVC012 M02/M04 A3019 RMK AO2 SLP251 T10171044
Loading
Personal Weather Stations






























Interactive Weather Map New forecast layout! Learn more

10-Day Weather Forecast

Advertisements
Track Severe Weather on mobile